Time;durP1;ratioP1;P1;durP2;ratioP2;P2;SDS_P1;SDS_P2;PMS_P1;PMS_P2;Temp;Humidity;BMP_temperature;BMP_pressure;BME280_temperature;BME280_humidity;BME280_pressure;Samples;Min_cycle;Max_cycle;Signal;HPM_P1;HPM_P2
2023/04/30 00:01:25;;;;;;;16.23;5.32;;;6.30;99.90;;;;;;5068365;28;20564;-59
2023/04/30 00:03:51;;;;;;;20.23;4.63;;;6.30;99.90;;;;;;5065604;28;20116;-60
2023/04/30 00:06:17;;;;;;;14.10;4.75;;;6.20;99.90;;;;;;5065476;28;20561;-59
2023/04/30 00:08:43;;;;;;;20.40;5.00;;;6.30;99.90;;;;;;5072944;28;20036;-59
2023/04/30 00:11:08;;;;;;;14.30;4.40;;;6.20;99.90;;;;;;5074341;28;20044;-59
2023/04/30 00:13:34;;;;;;;12.07;4.55;;;6.10;99.90;;;;;;5074652;28;20070;-61
2023/04/30 00:16:00;;;;;;;10.70;4.60;;;6.10;99.90;;;;;;5083095;28;20036;-61
2023/04/30 00:18:26;;;;;;;12.35;4.05;;;6.10;99.90;;;;;;5066481;28;20110;-61
2023/04/30 00:20:52;;;;;;;18.08;4.03;;;6.00;99.90;;;;;;5065888;28;20045;-62
2023/04/30 00:23:18;;;;;;;20.33;4.72;;;5.90;99.90;;;;;;5066148;28;20037;-60
2023/04/30 00:25:44;;;;;;;15.80;4.80;;;5.80;99.90;;;;;;5047547;28;20052;-62
2023/04/30 00:28:10;;;;;;;12.80;4.90;;;5.70;99.90;;;;;;5070697;28;20041;-61
2023/04/30 00:30:36;;;;;;;12.88;5.00;;;5.60;99.90;;;;;;5063082;28;20092;-59
2023/04/30 00:33:01;;;;;;;16.17;4.88;;;5.50;99.90;;;;;;5065719;28;20043;-59
2023/04/30 00:35:27;;;;;;;20.05;5.85;;;5.40;99.90;;;;;;5063413;28;20601;-59
2023/04/30 00:37:53;;;;;;;15.50;5.72;;;5.40;99.90;;;;;;5064438;28;20056;-60
2023/04/30 00:40:19;;;;;;;14.85;6.38;;;5.30;99.90;;;;;;5064052;28;20137;-59
2023/04/30 00:42:45;;;;;;;9.95;4.82;;;5.30;99.90;;;;;;5030996;28;20060;-61
2023/04/30 00:45:11;;;;;;;16.13;5.30;;;5.30;99.90;;;;;;5065014;28;20044;-61
2023/04/30 00:47:37;;;;;;;14.05;5.20;;;5.20;99.90;;;;;;5064106;28;20047;-60
2023/04/30 00:50:03;;;;;;;13.48;4.65;;;5.20;99.90;;;;;;5064046;28;20040;-57
2023/04/30 00:52:29;;;;;;;14.40;5.68;;;5.20;99.90;;;;;;5065607;28;20036;-60
2023/04/30 00:54:55;;;;;;;12.43;4.88;;;5.10;99.90;;;;;;5063962;28;20516;-60
2023/04/30 00:57:22;;;;;;;13.52;5.18;;;5.10;99.90;;;;;;5047092;28;20419;-60
2023/04/30 00:59:48;;;;;;;10.25;4.55;;;5.00;99.90;;;;;;5062504;28;20048;-60
2023/04/30 01:02:20;;;;;;;8.23;4.82;;;5.00;99.90;;;;;;5042158;28;20097;-58
2023/04/30 01:04:46;;;;;;;15.02;5.57;;;4.90;99.90;;;;;;5046806;28;20044;-61
2023/04/30 01:07:12;;;;;;;15.80;5.75;;;4.90;99.90;;;;;;5077226;28;20186;-60
2023/04/30 01:09:38;;;;;;;19.70;6.70;;;4.90;99.90;;;;;;5084296;28;20708;-60
2023/04/30 01:12:13;;;;;;;14.07;5.72;;;4.90;99.90;;;;;;5080934;28;20044;-60
2023/04/30 01:15:07;;;;;;;14.07;5.65;;;4.80;99.90;;;;;;5063744;28;20048;-61
2023/04/30 01:17:40;;;;;;;17.08;6.82;;;4.80;99.90;;;;;;5063002;28;20044;-60
2023/04/30 01:20:08;;;;;;;14.48;6.70;;;4.80;99.90;;;;;;5063281;28;20049;-60
2023/04/30 01:23:18;;;;;;;14.63;6.72;;;4.70;99.90;;;;;;5077482;28;20051;-60
2023/04/30 01:26:13;;;;;;;17.30;6.65;;;4.70;99.90;;;;;;5083256;28;20055;-61
2023/04/30 01:28:42;;;;;;;17.35;7.63;;;4.70;99.90;;;;;;5078623;28;20466;-61
2023/04/30 01:31:17;;;;;;;22.00;7.45;;;4.70;99.90;;;;;;5063671;28;20551;-59
2023/04/30 01:33:45;;;;;;;14.10;5.68;;;4.70;99.90;;;;;;5046283;28;20040;-60
2023/04/30 01:36:39;;;;;;;14.07;5.85;;;4.70;99.90;;;;;;5063546;28;20056;-60
2023/04/30 01:39:30;;;;;;;17.77;5.63;;;4.70;99.90;;;;;;5064947;28;20041;-60
2023/04/30 01:42:02;;;;;;;14.95;6.35;;;4.60;99.90;;;;;;5064545;28;20087;-62
2023/04/30 01:45:05;;;;;;;15.80;5.97;;;4.60;99.90;;;;;;5063267;28;20044;-61
2023/04/30 01:47:43;;;;;;;13.30;6.03;;;4.50;99.90;;;;;;5062564;28;20123;-60
2023/04/30 01:50:16;;;;;;;14.48;6.47;;;4.50;99.90;;;;;;5064516;28;20044;-59
2023/04/30 01:52:52;;;;;;;15.05;7.25;;;4.50;99.90;;;;;;5075466;28;20044;-60
2023/04/30 01:55:35;;;;;;;15.82;7.18;;;4.50;99.90;;;;;;5081938;28;20048;-61
2023/04/30 01:58:09;;;;;;;14.82;7.18;;;4.50;99.90;;;;;;5064287;28;20568;-60
2023/04/30 02:00:34;;;;;;;11.27;6.65;;;4.50;99.90;;;;;;5063372;28;20065;-60
2023/04/30 02:03:00;;;;;;;14.25;6.78;;;4.60;99.90;;;;;;5063640;28;20037;-60
2023/04/30 02:05:26;;;;;;;19.23;7.80;;;4.60;99.90;;;;;;5064256;28;20055;-59
2023/04/30 02:07:55;;;;;;;18.48;7.82;;;4.60;99.90;;;;;;5063430;28;20044;-60
2023/04/30 02:10:24;;;;;;;16.83;7.68;;;4.60;99.90;;;;;;5063407;28;20496;-60
2023/04/30 02:12:50;;;;;;;13.75;7.20;;;4.50;99.90;;;;;;5063549;28;20399;-60
2023/04/30 02:15:16;;;;;;;13.82;7.00;;;4.50;99.90;;;;;;5063493;28;20040;-60
2023/04/30 02:17:42;;;;;;;19.00;6.45;;;4.60;99.90;;;;;;5066143;28;20063;-60
2023/04/30 02:20:09;;;;;;;15.57;7.10;;;4.60;99.90;;;;;;5066545;28;20550;-59
2023/04/30 02:22:35;;;;;;;20.98;7.65;;;4.60;99.90;;;;;;5068381;28;20048;-60
2023/04/30 02:25:01;;;;;;;16.60;7.47;;;4.60;99.90;;;;;;5050460;28;20457;-60
2023/04/30 02:27:31;;;;;;;21.05;7.90;;;4.60;99.90;;;;;;5050044;28;20151;-60
2023/04/30 02:29:59;;;;;;;18.45;6.60;;;4.50;99.90;;;;;;5067248;28;20524;-60
2023/04/30 02:32:25;;;;;;;12.60;5.97;;;4.50;99.90;;;;;;5066675;28;20139;-60
2023/04/30 02:34:51;;;;;;;11.43;5.03;;;4.50;99.90;;;;;;5067443;28;20131;-61
2023/04/30 02:37:17;;;;;;;12.35;4.82;;;4.40;99.90;;;;;;5066270;28;20118;-60
2023/04/30 02:39:43;;;;;;;9.52;4.45;;;4.40;99.90;;;;;;5066220;28;20559;-60
2023/04/30 02:42:10;;;;;;;11.18;4.70;;;4.40;99.90;;;;;;5067911;28;20116;-60
2023/04/30 02:44:35;;;;;;;30.67;5.47;;;4.30;99.90;;;;;;5080466;28;20079;-61
2023/04/30 02:47:01;;;;;;;8.68;4.18;;;4.30;99.90;;;;;;5081341;28;20704;-59
2023/04/30 02:49:28;;;;;;;8.55;4.43;;;4.20;99.90;;;;;;5065786;28;20036;-61
2023/04/30 02:51:57;;;;;;;31.77;7.65;;;4.20;99.90;;;;;;5066642;28;20055;-61
2023/04/30 02:54:26;;;;;;;163.27;10.57;;;4.20;99.90;;;;;;5067516;28;20531;-60
2023/04/30 02:56:52;;;;;;;270.60;12.50;;;4.20;99.90;;;;;;5067038;28;20067;-58
2023/04/30 02:59:18;;;;;;;131.35;8.40;;;4.10;99.90;;;;;;5066968;28;20064;-60
2023/04/30 03:01:44;;;;;;;70.70;7.22;;;4.10;99.90;;;;;;5064907;28;20130;-60
2023/04/30 03:04:10;;;;;;;108.78;8.88;;;4.10;99.90;;;;;;5049090;28;20044;-59
2023/04/30 03:06:35;;;;;;;32.88;5.22;;;4.10;99.90;;;;;;5065705;28;20045;-61
2023/04/30 03:09:01;;;;;;;31.67;6.15;;;4.00;99.90;;;;;;5081485;28;20127;-60
2023/04/30 03:11:27;;;;;;;8.88;4.05;;;4.10;99.90;;;;;;5067163;28;20056;-61
2023/04/30 03:13:52;;;;;;;32.53;5.70;;;4.10;99.90;;;;;;5067064;28;20064;-60
2023/04/30 03:16:20;;;;;;;20.30;4.88;;;4.10;99.90;;;;;;5065965;28;20678;-59
2023/04/30 03:18:47;;;;;;;249.90;12.27;;;4.10;99.90;;;;;;5076151;28;20044;-59
2023/04/30 03:21:12;;;;;;;164.88;9.15;;;4.10;99.90;;;;;;5052452;28;20037;-60
2023/04/30 03:23:39;;;;;;;29.83;4.85;;;4.10;99.90;;;;;;5087540;28;20499;-60
2023/04/30 03:26:05;;;;;;;44.00;6.70;;;4.10;99.90;;;;;;5084272;28;20044;-61
2023/04/30 03:28:31;;;;;;;44.83;6.65;;;4.10;99.90;;;;;;5080448;28;20029;-60
2023/04/30 03:30:58;;;;;;;12.30;5.90;;;4.10;99.90;;;;;;5064819;28;20040;-60
2023/04/30 03:33:23;;;;;;;14.32;5.72;;;4.10;99.90;;;;;;5065496;28;20115;-59
2023/04/30 03:35:50;;;;;;;13.27;5.43;;;4.10;99.90;;;;;;5066016;28;20564;-60
2023/04/30 03:38:16;;;;;;;11.13;5.15;;;4.10;99.90;;;;;;5067106;28;20644;-59
2023/04/30 03:40:42;;;;;;;10.38;5.53;;;4.10;99.90;;;;;;5065232;28;20511;-60
2023/04/30 03:43:08;;;;;;;13.48;6.20;;;4.10;99.90;;;;;;5066805;28;20045;-61
2023/04/30 03:45:34;;;;;;;10.00;5.13;;;4.10;99.90;;;;;;5063802;28;20039;-59
2023/04/30 03:47:59;;;;;;;8.00;4.78;;;4.10;99.90;;;;;;5048384;28;20051;-59
2023/04/30 03:50:26;;;;;;;12.63;7.15;;;4.10;99.90;;;;;;5064904;28;20152;-59
2023/04/30 03:52:51;;;;;;;8.80;5.10;;;4.10;99.90;;;;;;5048720;28;20048;-59
2023/04/30 03:55:17;;;;;;;9.93;5.30;;;4.10;99.90;;;;;;5065848;28;20044;-59
2023/04/30 03:57:43;;;;;;;14.90;5.35;;;4.20;99.90;;;;;;5066402;28;20060;-60
2023/04/30 04:00:10;;;;;;;21.58;6.90;;;4.10;99.90;;;;;;5083626;28;20036;-61
2023/04/30 04:02:36;;;;;;;10.02;5.57;;;4.10;99.90;;;;;;5075183;28;20072;-60
2023/04/30 04:05:03;;;;;;;13.50;6.45;;;4.20;99.90;;;;;;5047503;28;20123;-61
2023/04/30 04:07:31;;;;;;;12.90;5.38;;;4.20;99.90;;;;;;5085059;28;20655;-60
2023/04/30 04:09:57;;;;;;;13.02;6.43;;;4.20;99.90;;;;;;5085043;28;20048;-60
2023/04/30 04:12:26;;;;;;;16.85;7.82;;;4.20;99.90;;;;;;5060620;28;20459;-60
2023/04/30 04:14:51;;;;;;;14.00;7.13;;;4.20;99.90;;;;;;5047889;28;20109;-60
2023/04/30 04:17:17;;;;;;;16.35;8.43;;;4.20;99.90;;;;;;5063498;28;20044;-60
2023/04/30 04:19:43;;;;;;;17.63;8.02;;;4.20;99.90;;;;;;5065323;28;20052;-60
2023/04/30 04:22:09;;;;;;;17.23;7.70;;;4.30;99.90;;;;;;5066675;28;20396;-60
2023/04/30 04:24:35;;;;;;;18.00;9.30;;;4.30;99.90;;;;;;5085893;28;20086;-60
2023/04/30 04:27:04;;;;;;;18.02;7.72;;;4.40;99.90;;;;;;5084375;28;20174;-61
2023/04/30 04:29:31;;;;;;;24.30;8.85;;;4.50;99.90;;;;;;5072113;28;20029;-60
2023/04/30 04:31:56;;;;;;;18.27;8.80;;;4.70;99.90;;;;;;5062884;28;20576;-59
2023/04/30 04:34:22;;;;;;;19.77;9.10;;;4.80;99.90;;;;;;5064327;28;20135;-59
2023/04/30 04:36:48;;;;;;;19.15;9.27;;;4.90;99.90;;;;;;5047310;28;20032;-60
2023/04/30 04:39:14;;;;;;;16.88;7.00;;;5.00;99.90;;;;;;5064958;28;20045;-60
2023/04/30 04:41:40;;;;;;;13.32;6.00;;;5.10;99.90;;;;;;5065689;28;20045;-61
2023/04/30 04:44:06;;;;;;;12.10;6.30;;;5.20;99.90;;;;;;5064399;28;20032;-61
2023/04/30 04:46:34;;;;;;;19.30;9.02;;;5.30;99.90;;;;;;5065460;28;20047;-61
2023/04/30 04:49:00;;;;;;;22.85;9.52;;;5.40;99.90;;;;;;5047709;28;20039;-61
2023/04/30 04:51:26;;;;;;;26.10;10.75;;;5.50;99.90;;;;;;5047352;28;20063;-60
2023/04/30 04:53:52;;;;;;;19.38;9.10;;;5.50;99.90;;;;;;5076560;28;20040;-60
2023/04/30 04:56:18;;;;;;;22.17;9.63;;;5.60;99.90;;;;;;5085403;28;20483;-60
2023/04/30 04:58:44;;;;;;;22.73;12.02;;;5.70;99.90;;;;;;5078152;28;20059;-60
2023/04/30 05:01:13;;;;;;;24.02;12.57;;;5.80;99.90;;;;;;5045999;28;20045;-60
2023/04/30 05:03:42;;;;;;;24.00;12.25;;;6.10;99.90;;;;;;5064092;28;20062;-60
2023/04/30 05:06:08;;;;;;;24.40;11.50;;;6.30;99.90;;;;;;5064932;28;20666;-61
2023/04/30 05:08:33;;;;;;;24.33;11.20;;;6.60;99.90;;;;;;5065067;28;20499;-60
2023/04/30 05:10:59;;;;;;;17.98;7.47;;;6.90;99.90;;;;;;5064847;28;20041;-59
2023/04/30 05:13:25;;;;;;;18.23;9.35;;;7.20;99.90;;;;;;5072822;28;20113;-61
2023/04/30 05:15:52;;;;;;;16.73;8.35;;;7.50;99.90;;;;;;5063606;28;20696;-60
2023/04/30 05:18:19;;;;;;;19.15;8.57;;;7.80;99.90;;;;;;5061064;28;20178;-62
2023/04/30 05:20:47;;;;;;;17.85;8.00;;;8.30;99.90;;;;;;5084860;28;20055;-59
2023/04/30 05:23:13;;;;;;;14.35;8.00;;;8.80;99.90;;;;;;5085493;28;20090;-61
2023/04/30 05:25:39;;;;;;;15.73;7.88;;;9.10;99.90;;;;;;5080859;28;20536;-60
2023/04/30 05:28:05;;;;;;;19.55;7.57;;;9.50;99.90;;;;;;5064032;28;20048;-59
2023/04/30 05:30:31;;;;;;;14.85;7.70;;;9.40;99.90;;;;;;5083927;28;20044;-60
2023/04/30 05:33:00;;;;;;;19.10;9.00;;;9.00;99.90;;;;;;5070793;28;20044;-60
2023/04/30 05:35:26;;;;;;;16.58;8.43;;;8.60;99.90;;;;;;5063149;28;20055;-62
2023/04/30 05:37:52;;;;;;;13.50;7.75;;;8.40;99.90;;;;;;5065152;28;20040;-60
2023/04/30 05:40:18;;;;;;;15.30;7.65;;;8.10;99.90;;;;;;5063112;28;20423;-61
2023/04/30 05:42:43;;;;;;;18.15;7.55;;;7.90;99.90;;;;;;5064792;28;20126;-59
2023/04/30 05:45:11;;;;;;;23.40;8.18;;;7.80;99.90;;;;;;5064358;28;20032;-59
2023/04/30 05:47:37;;;;;;;16.38;8.38;;;7.70;99.90;;;;;;5062327;28;20047;-60
2023/04/30 05:50:03;;;;;;;17.25;7.75;;;7.60;99.90;;;;;;5063692;28;20655;-60
2023/04/30 05:52:29;;;;;;;24.17;8.38;;;7.50;99.90;;;;;;5067805;28;20071;-60
2023/04/30 05:54:55;;;;;;;16.42;7.57;;;7.50;99.90;;;;;;5068723;28;20149;-59
2023/04/30 05:57:21;;;;;;;19.60;7.43;;;7.40;99.90;;;;;;5066975;28;20135;-62
2023/04/30 05:59:47;;;;;;;16.80;8.60;;;7.50;99.90;;;;;;5068425;28;20060;-60
2023/04/30 06:02:13;;;;;;;15.65;8.07;;;7.50;99.90;;;;;;5065747;28;20174;-60
2023/04/30 06:04:39;;;;;;;17.27;9.18;;;7.60;99.90;;;;;;5066775;28;20131;-62
2023/04/30 06:07:05;;;;;;;17.08;7.97;;;7.60;99.90;;;;;;5055929;28;20040;-59
2023/04/30 06:09:31;;;;;;;20.48;7.35;;;7.70;99.90;;;;;;5087238;28;20050;-60
2023/04/30 06:11:57;;;;;;;20.17;7.57;;;7.80;99.90;;;;;;5086937;28;20407;-59
2023/04/30 06:14:23;;;;;;;17.75;7.25;;;7.80;99.90;;;;;;5084990;28;20128;-60
2023/04/30 06:16:49;;;;;;;18.83;7.07;;;7.90;99.90;;;;;;5083078;28;20040;-60
2023/04/30 06:19:15;;;;;;;15.48;6.10;;;8.00;99.90;;;;;;5067714;28;20036;-60
2023/04/30 06:21:42;;;;;;;21.63;6.80;;;8.20;99.90;;;;;;5067088;28;20179;-59
2023/04/30 06:24:11;;;;;;;17.63;5.78;;;8.20;99.90;;;;;;5066909;28;20440;-59
2023/04/30 06:26:37;;;;;;;12.20;5.60;;;8.50;99.90;;;;;;5067841;28;20115;-59
2023/04/30 06:29:04;;;;;;;16.55;5.38;;;8.80;99.90;;;;;;5073744;28;20157;-58
2023/04/30 06:31:30;;;;;;;16.02;5.78;;;9.10;99.90;;;;;;5081642;28;20599;-60
2023/04/30 06:33:55;;;;;;;15.52;5.82;;;9.50;99.90;;;;;;5076923;28;20044;-59
2023/04/30 06:36:21;;;;;;;15.80;5.75;;;9.70;99.90;;;;;;5076927;28;20185;-59
2023/04/30 06:38:47;;;;;;;14.52;4.82;;;10.10;99.90;;;;;;5078423;28;20040;-59
2023/04/30 06:41:14;;;;;;;12.93;4.63;;;10.40;99.90;;;;;;5078460;28;20100;-59
2023/04/30 06:43:40;;;;;;;19.15;4.45;;;10.70;99.90;;;;;;5069792;28;20484;-61
2023/04/30 06:46:06;;;;;;;18.20;4.32;;;10.90;99.90;;;;;;5086919;28;20048;-59
2023/04/30 06:48:32;;;;;;;16.02;4.55;;;11.10;99.90;;;;;;5068952;28;20217;-60
2023/04/30 06:50:58;;;;;;;16.83;4.80;;;11.50;99.90;;;;;;5067898;28;20041;-59
2023/04/30 06:53:24;;;;;;;14.82;4.38;;;11.70;99.90;;;;;;5069316;28;20381;-58
2023/04/30 06:55:51;;;;;;;10.68;3.58;;;11.90;99.90;;;;;;5087281;28;20132;-61
2023/04/30 06:58:17;;;;;;;14.48;3.75;;;12.00;99.90;;;;;;5084562;28;20064;-59
2023/04/30 07:00:43;;;;;;;16.70;3.95;;;12.20;99.90;;;;;;5064762;28;20057;-60
2023/04/30 07:03:11;;;;;;;15.52;4.30;;;12.20;99.90;;;;;;5045713;28;20048;-59
2023/04/30 07:05:37;;;;;;;18.40;4.05;;;12.20;99.90;;;;;;5085543;28;20044;-58
2023/04/30 07:08:05;;;;;;;10.88;4.07;;;12.00;99.90;;;;;;5075142;28;20479;-61
2023/04/30 07:10:31;;;;;;;16.70;5.07;;;12.00;99.90;;;;;;5073365;28;20040;-61
2023/04/30 07:12:58;;;;;;;18.40;5.00;;;11.90;99.90;;;;;;5075073;28;20604;-58
2023/04/30 07:15:24;;;;;;;13.68;4.32;;;11.70;99.90;;;;;;5070934;28;20036;-59
2023/04/30 07:17:49;;;;;;;15.60;5.03;;;11.40;99.90;;;;;;5072071;28;21562;-58
2023/04/30 07:20:15;;;;;;;16.83;3.70;;;11.40;99.90;;;;;;5056525;28;21901;-59
2023/04/30 07:22:45;;;;;;;15.98;3.47;;;11.30;99.90;;;;;;5075691;28;20099;-59
2023/04/30 07:25:12;;;;;;;12.30;2.55;;;11.00;99.90;;;;;;5076453;28;20043;-59
2023/04/30 07:27:44;;;;;;;11.00;3.80;;;10.70;99.90;;;;;;5071943;28;20733;-60
2023/04/30 07:30:10;;;;;;;12.65;3.13;;;10.50;99.90;;;;;;5065527;28;20048;-59
2023/04/30 07:32:37;;;;;;;15.38;4.05;;;10.40;99.90;;;;;;5083198;28;20047;-59
2023/04/30 07:35:03;;;;;;;16.13;4.18;;;10.40;99.90;;;;;;5068056;28;20040;-60
2023/04/30 07:37:30;;;;;;;13.20;3.53;;;10.60;99.90;;;;;;5064680;28;20032;-59
2023/04/30 07:39:56;;;;;;;17.50;3.88;;;10.50;99.90;;;;;;5065606;28;20049;-59
2023/04/30 07:42:22;;;;;;;12.73;3.80;;;10.40;99.90;;;;;;5071331;28;20046;-59
2023/04/30 07:44:48;;;;;;;12.60;4.13;;;10.50;99.90;;;;;;5084513;28;20028;-60
2023/04/30 07:47:14;;;;;;;12.57;3.35;;;10.70;99.90;;;;;;5078556;28;20044;-60
2023/04/30 07:49:40;;;;;;;15.15;4.18;;;11.00;99.90;;;;;;5064923;28;20032;-59
2023/04/30 07:52:09;;;;;;;13.07;3.97;;;11.20;99.90;;;;;;5065197;28;20051;-61
2023/04/30 07:54:37;;;;;;;14.95;3.42;;;11.40;99.90;;;;;;5064935;28;20051;-59
2023/04/30 07:57:04;;;;;;;16.10;3.47;;;11.80;99.90;;;;;;5048389;28;20036;-60
2023/04/30 07:59:30;;;;;;;16.08;3.53;;;12.40;99.90;;;;;;5064601;28;20056;-59
2023/04/30 08:01:56;;;;;;;15.80;3.40;;;12.60;99.90;;;;;;5063866;28;20052;-60
2023/04/30 08:04:24;;;;;;;15.48;3.45;;;12.60;99.90;;;;;;5064545;28;20109;-60
2023/04/30 08:06:52;;;;;;;17.17;3.65;;;12.50;99.90;;;;;;5066333;28;20041;-60
2023/04/30 08:09:18;;;;;;;22.10;4.03;;;12.60;99.90;;;;;;5067726;28;20041;-59
2023/04/30 08:11:44;;;;;;;15.10;3.35;;;12.50;99.90;;;;;;5045821;28;20035;-61
2023/04/30 08:14:10;;;;;;;14.55;3.72;;;12.60;99.90;;;;;;5069789;28;20118;-58
2023/04/30 08:16:36;;;;;;;13.98;3.28;;;12.90;99.90;;;;;;5064638;28;20044;-62
2023/04/30 08:19:02;;;;;;;11.85;3.55;;;13.10;99.90;;;;;;5052190;28;20060;-60
2023/04/30 08:21:29;;;;;;;15.18;3.65;;;12.90;99.90;;;;;;5049516;28;20381;-60
2023/04/30 08:23:56;;;;;;;9.52;3.17;;;12.90;99.90;;;;;;5065546;28;20032;-62
2023/04/30 08:26:22;;;;;;;12.48;3.38;;;13.00;99.10;;;;;;5050737;28;20040;-61
2023/04/30 08:28:48;;;;;;;17.05;3.60;;;13.10;98.20;;;;;;5072281;28;20036;-60
2023/04/30 08:31:14;;;;;;;17.23;3.42;;;12.90;98.00;;;;;;5061004;28;20086;-61
2023/04/30 08:33:40;;;;;;;16.88;4.30;;;13.40;97.60;;;;;;5072834;28;20036;-60
2023/04/30 08:36:06;;;;;;;13.73;3.88;;;13.60;97.20;;;;;;5085331;28;20055;-59
2023/04/30 08:38:32;;;;;;;13.75;3.30;;;13.70;97.10;;;;;;5076394;28;20040;-60
2023/04/30 08:41:11;;;;;;;14.80;3.45;;;13.70;96.90;;;;;;5059814;28;20036;-60
2023/04/30 08:43:37;;;;;;;14.60;3.60;;;14.10;96.80;;;;;;5078297;28;20477;-61
2023/04/30 08:46:04;;;;;;;10.43;2.83;;;14.30;96.80;;;;;;5052149;28;20067;-60
2023/04/30 08:48:30;;;;;;;13.23;3.28;;;14.60;96.40;;;;;;5068475;28;20040;-60
2023/04/30 08:51:02;;;;;;;11.02;3.10;;;14.80;95.80;;;;;;5072009;28;20040;-59
2023/04/30 08:53:30;;;;;;;10.10;3.10;;;15.00;95.00;;;;;;5067202;28;20117;-60
2023/04/30 08:55:56;;;;;;;10.48;3.03;;;15.00;94.40;;;;;;5071698;28;20119;-62
2023/04/30 08:58:22;;;;;;;10.43;2.97;;;15.10;94.30;;;;;;5072883;28;20574;-61
2023/04/30 09:00:48;;;;;;;8.88;2.67;;;15.10;94.20;;;;;;5062535;28;20127;-60
2023/04/30 09:03:14;;;;;;;11.75;2.85;;;15.20;94.10;;;;;;5070782;28;20060;-60
2023/04/30 09:05:40;;;;;;;13.68;3.10;;;15.30;94.10;;;;;;5073856;28;20090;-60
2023/04/30 09:08:07;;;;;;;15.48;3.17;;;15.20;93.20;;;;;;5073283;28;20247;-61
2023/04/30 09:10:34;;;;;;;10.93;2.70;;;15.20;93.10;;;;;;5073059;28;20046;-61
2023/04/30 09:13:10;;;;;;;14.57;3.70;;;15.20;93.10;;;;;;5054903;28;20036;-59
2023/04/30 09:15:40;;;;;;;9.85;2.97;;;15.10;91.00;;;;;;5052007;28;20180;-59
2023/04/30 09:18:06;;;;;;;12.45;3.50;;;15.00;91.90;;;;;;5051381;28;20262;-58
2023/04/30 09:20:32;;;;;;;17.35;3.72;;;14.50;91.80;;;;;;5073150;28;20052;-60
2023/04/30 09:23:09;;;;;;;12.95;3.50;;;14.10;91.90;;;;;;5060119;28;20033;-61
2023/04/30 09:25:42;;;;;;;12.02;3.80;;;14.10;92.10;;;;;;5063997;28;20040;-60
2023/04/30 09:28:08;;;;;;;15.48;3.83;;;13.80;92.20;;;;;;5063824;28;20147;-60
2023/04/30 09:30:34;;;;;;;13.25;3.55;;;13.70;92.80;;;;;;5077715;28;20135;-59
2023/04/30 09:32:59;;;;;;;14.95;3.58;;;13.80;93.00;;;;;;5075036;28;20119;-60
2023/04/30 09:35:33;;;;;;;13.35;3.58;;;14.00;92.90;;;;;;5066581;28;20040;-59
2023/04/30 09:38:03;;;;;;;12.88;3.45;;;14.10;92.60;;;;;;5078570;28;20167;-61
2023/04/30 09:40:40;;;;;;;10.75;3.25;;;14.10;92.90;;;;;;5046859;28;20086;-60
2023/04/30 09:43:06;;;;;;;10.35;3.35;;;14.50;93.80;;;;;;5063943;28;20076;-59
2023/04/30 09:45:43;;;;;;;11.20;3.35;;;14.80;94.00;;;;;;5061848;28;20048;-59
2023/04/30 09:48:10;;;;;;;11.57;3.40;;;15.00;93.20;;;;;;5063623;28;20040;-58
2023/04/30 09:50:40;;;;;;;12.02;3.60;;;15.20;92.80;;;;;;5064550;28;20114;-59
2023/04/30 09:53:12;;;;;;;10.68;3.70;;;15.00;92.00;;;;;;5077922;28;20514;-60
2023/04/30 09:55:41;;;;;;;12.68;4.10;;;15.20;93.20;;;;;;5084223;28;20036;-58
2023/04/30 09:58:08;;;;;;;13.77;3.67;;;14.70;92.10;;;;;;5083637;28;20060;-60
2023/04/30 10:00:34;;;;;;;13.85;3.75;;;14.70;92.30;;;;;;5048666;28;20066;-60
2023/04/30 10:03:07;;;;;;;17.77;4.00;;;14.30;92.30;;;;;;5064419;28;20037;-59
2023/04/30 10:05:46;;;;;;;15.88;3.30;;;14.40;92.60;;;;;;5081301;28;20071;-58
2023/04/30 10:08:31;;;;;;;11.98;4.05;;;14.60;92.70;;;;;;5091877;28;20036;-59
2023/04/30 10:11:01;;;;;;;14.48;3.85;;;14.80;91.70;;;;;;5075757;28;20139;-59
2023/04/30 10:13:30;;;;;;;13.35;3.58;;;15.20;91.40;;;;;;5065778;28;20043;-61
2023/04/30 10:16:03;;;;;;;13.13;3.78;;;15.80;91.70;;;;;;5051981;28;20135;-59
2023/04/30 10:18:38;;;;;;;13.02;4.25;;;16.30;91.40;;;;;;5064231;28;20198;-60
2023/04/30 10:21:10;;;;;;;14.05;3.83;;;16.30;88.30;;;;;;5069679;28;20449;-60
2023/04/30 10:23:42;;;;;;;12.50;3.90;;;16.40;88.30;;;;;;5054937;28;20052;-61
2023/04/30 10:26:11;;;;;;;13.52;4.25;;;16.40;88.30;;;;;;5051381;28;20510;-61
2023/04/30 10:28:37;;;;;;;11.85;3.53;;;16.50;87.40;;;;;;5057950;28;20124;-60
2023/04/30 10:31:06;;;;;;;13.27;3.63;;;16.90;87.90;;;;;;5052266;28;20055;-60
2023/04/30 10:33:50;;;;;;;9.00;3.35;;;17.10;85.30;;;;;;5072404;28;20036;-61
2023/04/30 10:36:40;;;;;;;;;;;17.10;84.20;;;;;;5072506;28;20553;-61
2023/04/30 10:39:07;;;;;;;12.27;3.83;;;17.00;84.70;;;;;;5075628;28;20310;-59
2023/04/30 10:41:33;;;;;;;13.60;4.28;;;16.90;85.40;;;;;;5080092;28;20044;-59
2023/04/30 10:44:01;;;;;;;12.35;4.05;;;17.00;84.80;;;;;;5052088;28;20051;-59
2023/04/30 10:46:27;;;;;;;16.42;3.85;;;17.40;84.50;;;;;;5084568;28;20048;-61
2023/04/30 10:48:54;;;;;;;13.23;4.97;;;17.50;86.10;;;;;;5049953;28;20502;-62
2023/04/30 10:51:20;;;;;;;10.80;3.90;;;17.50;82.00;;;;;;5049535;28;20055;-60
2023/04/30 10:53:49;;;;;;;12.27;4.20;;;17.40;80.10;;;;;;5066085;28;20582;-61
2023/04/30 10:56:30;;;;;;;10.73;3.40;;;17.50;78.90;;;;;;5049401;28;20131;-60
2023/04/30 10:59:01;;;;;;;10.77;3.67;;;17.40;76.00;;;;;;5065873;28;20113;-61
2023/04/30 11:01:27;;;;;;;12.18;4.05;;;17.60;77.50;;;;;;5064797;28;20105;-58
2023/04/30 11:04:07;;;;;;;11.70;4.25;;;17.40;76.10;;;;;;5066826;28;20055;-63
2023/04/30 11:06:52;;;;;;;14.23;4.50;;;17.50;76.20;;;;;;5049375;28;20253;-60
2023/04/30 11:09:23;;;;;;;11.27;3.95;;;17.30;71.90;;;;;;5066239;28;20109;-61
2023/04/30 11:12:08;;;;;;;12.65;3.67;;;17.20;74.10;;;;;;5082425;28;20048;-61
2023/04/30 11:14:34;;;;;;;13.43;4.32;;;17.10;72.10;;;;;;5065775;28;20243;-61
2023/04/30 11:17:01;;;;;;;12.23;3.95;;;17.20;73.80;;;;;;5083034;28;20047;-60
2023/04/30 11:19:28;;;;;;;10.15;3.58;;;17.30;74.20;;;;;;5048810;28;20047;-61
2023/04/30 11:22:03;;;;;;;12.50;3.47;;;17.50;73.30;;;;;;5065663;28;20532;-59
2023/04/30 11:24:49;;;;;;;8.70;3.58;;;17.60;74.00;;;;;;5085868;28;20055;-59
2023/04/30 11:27:21;;;;;;;11.38;3.70;;;17.60;71.70;;;;;;5086301;28;20055;-59
2023/04/30 11:29:46;;;;;;;14.23;4.50;;;17.80;72.00;;;;;;5056372;28;20495;-61
2023/04/30 11:32:12;;;;;;;11.13;4.20;;;18.30;72.70;;;;;;5047575;28;20052;-61
2023/04/30 11:34:39;;;;;;;12.93;4.78;;;18.80;71.70;;;;;;5065157;28;20040;-59
2023/04/30 11:37:05;;;;;;;12.70;3.78;;;19.00;70.10;;;;;;5079887;28;20109;-61
2023/04/30 11:39:34;;;;;;;8.48;3.67;;;18.70;69.50;;;;;;5068715;28;20170;-60
2023/04/30 11:42:02;;;;;;;11.00;4.05;;;19.00;67.90;;;;;;5081055;28;20071;-61
2023/04/30 11:44:27;;;;;;;10.00;4.22;;;19.00;68.90;;;;;;5031863;28;20044;-62
2023/04/30 11:46:53;;;;;;;13.98;4.70;;;19.00;67.90;;;;;;5065608;28;20044;-60
2023/04/30 11:49:20;;;;;;;10.20;3.97;;;19.40;69.50;;;;;;5064670;28;20559;-63
2023/04/30 11:51:50;;;;;;;9.80;3.90;;;19.70;69.00;;;;;;5066590;28;20047;-61
2023/04/30 11:54:17;;;;;;;8.55;3.47;;;20.00;67.00;;;;;;5064989;28;20143;-58
2023/04/30 11:56:47;;;;;;;12.02;4.18;;;20.20;66.10;;;;;;5048143;28;20092;-59
2023/04/30 11:59:14;;;;;;;7.68;4.30;;;20.30;65.00;;;;;;5064694;28;20530;-60
2023/04/30 12:01:40;;;;;;;10.95;4.40;;;20.20;65.40;;;;;;5063721;28;20484;-61
2023/04/30 12:04:07;;;;;;;11.70;4.80;;;19.00;64.20;;;;;;5085451;28;20666;-61
2023/04/30 12:06:34;;;;;;;13.38;4.78;;;18.60;64.70;;;;;;5080105;28;20036;-60
2023/04/30 12:09:06;;;;;;;13.98;4.97;;;18.30;65.90;;;;;;5066198;28;20071;-63
2023/04/30 12:11:33;;;;;;;9.70;4.50;;;17.90;66.70;;;;;;5064616;28;20048;-62
2023/04/30 12:14:03;;;;;;;14.65;4.80;;;18.10;67.00;;;;;;5065421;28;20047;-61
2023/04/30 12:16:39;;;;;;;15.15;5.05;;;18.10;67.10;;;;;;5046925;28;20558;-63
2023/04/30 12:19:04;;;;;;;13.40;4.38;;;18.10;67.10;;;;;;5084219;28;20710;-60
2023/04/30 12:21:30;;;;;;;12.55;4.70;;;18.20;67.60;;;;;;5084894;28;20044;-61
2023/04/30 12:23:56;;;;;;;12.13;4.82;;;18.60;66.30;;;;;;5084319;28;20040;-60
2023/04/30 12:26:22;;;;;;;9.32;4.32;;;18.80;65.40;;;;;;5077890;28;20072;-62
2023/04/30 12:28:48;;;;;;;9.50;3.83;;;18.80;66.00;;;;;;5064554;28;20416;-60
2023/04/30 12:31:16;;;;;;;10.05;4.57;;;18.50;66.90;;;;;;5063086;28;20056;-60
2023/04/30 12:33:43;;;;;;;11.20;4.28;;;18.60;67.00;;;;;;5030978;28;20491;-59
2023/04/30 12:36:12;;;;;;;8.85;4.22;;;18.60;65.80;;;;;;5064469;28;20044;-61
2023/04/30 12:38:42;;;;;;;7.53;3.65;;;18.70;66.00;;;;;;5065795;28;20048;-60
2023/04/30 12:41:16;;;;;;;8.80;3.90;;;18.70;66.20;;;;;;5047750;28;20040;-60
2023/04/30 12:43:41;;;;;;;7.15;3.53;;;18.50;67.50;;;;;;5065212;28;20488;-63
2023/04/30 12:46:07;;;;;;;11.18;4.35;;;18.00;66.30;;;;;;5046417;28;20036;-60
2023/04/30 12:48:43;;;;;;;9.25;4.50;;;17.70;67.10;;;;;;5064486;28;20037;-60